Check out our new BloomSky Weather System.

Active alerts

Houston, TX
  Details for Houston, TX Dense Fog Advisory


Thunder radar  blitzortung!


Rain radar more information rain snow radar


Visit our other weather sites:

Template documentation
and downloads

And another site



Weather Underground History page Text

Daily Summary for May 24, 2017 Units:  English    Metric   Both
« Previous Day
Next Day »
Daily Weekly Monthly Yearly Custom
  High: Low: Average:
Temperature: 83.1 °F 57.2 °F 70 °F
Dew Point: 61.9 °F 48.6 °F 55.2 °F
Humidity: 95 % 32 % 64 %
Wind Speed: 11.0 mph 0.0 mph 2.3 mph
Wind Gust: 21.0 mph - -
Wind:- - WNW
Pressure: 29.88 in 29.71 in -
Precipitation: 0.00 in    
Historical Graphs
 
 
Tabular Data for May 24, 2017
Time Temperature Dew Point Pressure Wind Wind Speed Wind Gust Humidity Rainfall Rate (Hourly)
00:02 63.9 °F 61.9 °F 29.88 in NNW 2.0 mph 6.0 mph 93 % 0.00 in
00:07 63.7 °F 61.7 °F 29.88 in NW 1.0 mph 6.0 mph 93 % 0.00 in
00:12 63.7 °F 61.7 °F 29.88 in WSW 2.0 mph 6.0 mph 93 % 0.00 in
00:17 63.5 °F 61.5 °F 29.88 in NW 2.0 mph 10.0 mph 93 % 0.00 in
00:22 63.3 °F 61.3 °F 29.88 in NNW 4.0 mph 10.0 mph 93 % 0.00 in
00:27 63.3 °F 61.3 °F 29.88 in WNW 2.0 mph 10.0 mph 93 % 0.00 in
00:32 63.3 °F 61.3 °F 29.88 in NNW 2.0 mph 9.0 mph 93 % 0.00 in
00:37 63.1 °F 61.2 °F 29.88 in NW 2.0 mph 9.0 mph 93 % 0.00 in
00:42 63.1 °F 61.2 °F 29.88 in NW 4.0 mph 7.0 mph 93 % 0.00 in
00:47 63.0 °F 60.6 °F 29.88 in NW 2.0 mph 7.0 mph 92 % 0.00 in
00:52 63.0 °F 60.6 °F 29.88 in NNW 3.0 mph 7.0 mph 92 % 0.00 in
00:57 62.8 °F 60.4 °F 29.87 in NNW 2.0 mph 7.0 mph 92 % 0.00 in
01:02 62.6 °F 60.6 °F 29.87 in North 1.0 mph 6.0 mph 93 % 0.00 in
01:07 62.4 °F 60.1 °F 29.87 in WNW 1.0 mph 6.0 mph 92 % 0.00 in
01:12 62.4 °F 60.1 °F 29.87 in NW 4.0 mph 6.0 mph 92 % 0.00 in
01:17 62.2 °F 59.9 °F 29.87 in West 2.0 mph 6.0 mph 92 % 0.00 in
01:22 62.1 °F 59.7 °F 29.86 in WSW 1.0 mph 5.0 mph 92 % 0.00 in
01:27 61.9 °F 59.5 °F 29.86 in NW 1.0 mph 5.0 mph 92 % 0.00 in
01:32 61.9 °F 59.9 °F 29.86 in NW 1.0 mph 5.0 mph 93 % 0.00 in
01:37 61.5 °F 59.5 °F 29.86 in NNW 2.0 mph 5.0 mph 93 % 0.00 in
01:42 61.5 °F 59.5 °F 29.86 in NW 3.0 mph 5.0 mph 93 % 0.00 in
01:47 61.3 °F 59.4 °F 29.85 in NNW 1.0 mph 5.0 mph 93 % 0.00 in
01:52 61.3 °F 59.4 °F 29.85 in Calm   5.0 mph 93 % 0.00 in
01:57 61.2 °F 59.2 °F 29.85 in NW 2.0 mph 4.0 mph 93 % 0.00 in
02:02 61.0 °F 59.0 °F 29.84 in NW 2.0 mph 4.0 mph 93 % 0.00 in
02:07 61.0 °F 59.0 °F 29.84 in NNW 3.0 mph 4.0 mph 93 % 0.00 in
02:12 61.0 °F 58.6 °F 29.84 in West 1.0 mph 4.0 mph 92 % 0.00 in
02:17 60.6 °F 58.3 °F 29.84 in Calm   4.0 mph 92 % 0.00 in
02:22 60.6 °F 58.6 °F 29.84 in Calm   4.0 mph 93 % 0.00 in
02:27 60.4 °F 58.5 °F 29.84 in West 1.0 mph 3.0 mph 93 % 0.00 in
02:32 60.3 °F 58.3 °F 29.84 in NNW 1.0 mph 3.0 mph 93 % 0.00 in
02:37 60.3 °F 58.3 °F 29.83 in Calm   3.0 mph 93 % 0.00 in
02:42 60.1 °F 58.1 °F 29.83 in NW 1.0 mph 3.0 mph 93 % 0.00 in
02:47 60.1 °F 58.1 °F 29.83 in Calm   3.0 mph 93 % 0.00 in
02:52 59.7 °F 57.7 °F 29.83 in Calm   3.0 mph 93 % 0.00 in
02:57 59.5 °F 57.6 °F 29.83 in West 1.0 mph 2.0 mph 93 % 0.00 in
03:02 59.5 °F 57.6 °F 29.83 in Calm   3.0 mph 93 % 0.00 in
03:07 59.4 °F 57.4 °F 29.83 in Calm   3.0 mph 93 % 0.00 in
03:13 59.2 °F 57.2 °F 29.83 in Calm   3.0 mph 93 % 0.00 in
03:18 58.8 °F 56.8 °F 29.83 in Calm   2.0 mph 93 % 0.00 in
03:23 58.8 °F 57.0 °F 29.84 in Calm   2.0 mph 94 % 0.00 in
03:28 58.6 °F 56.8 °F 29.84 in Calm   2.0 mph 94 % 0.00 in
03:33 58.5 °F 56.7 °F 29.84 in Calm   2.0 mph 94 % 0.00 in
03:38 58.3 °F 56.5 °F 29.83 in Calm   1.0 mph 94 % 0.00 in
03:43 58.3 °F 56.5 °F 29.83 in Calm   1.0 mph 94 % 0.00 in
03:48 58.3 °F 56.5 °F 29.82 in Calm   1.0 mph 94 % 0.00 in
03:53 58.3 °F 56.5 °F 29.82 in WNW 1.0 mph 1.0 mph 94 % 0.00 in
03:58 58.1 °F 56.3 °F 29.82 in Calm   2.0 mph 94 % 0.00 in
04:03 58.1 °F 56.3 °F 29.83 in Calm   2.0 mph 94 % 0.00 in
04:08 57.9 °F 56.1 °F 29.82 in Calm   2.0 mph 94 % 0.00 in
04:13 57.9 °F 56.1 °F 29.81 in Calm   2.0 mph 94 % 0.00 in
04:18 57.7 °F 55.9 °F 29.81 in NW 1.0 mph 2.0 mph 94 % 0.00 in
04:23 57.9 °F 56.5 °F 29.81 in Calm   2.0 mph 95 % 0.00 in
04:28 57.9 °F 56.1 °F 29.81 in Calm   3.0 mph 94 % 0.00 in
04:33 57.7 °F 55.9 °F 29.80 in Calm   3.0 mph 94 % 0.00 in
04:38 57.6 °F 55.8 °F 29.80 in NNW 2.0 mph 3.0 mph 94 % 0.00 in
04:43 57.6 °F 56.1 °F 29.80 in NNW 1.0 mph 3.0 mph 95 % 0.00 in
04:48 57.7 °F 56.3 °F 29.80 in Calm   3.0 mph 95 % 0.00 in
04:53 57.6 °F 55.8 °F 29.80 in Calm   3.0 mph 94 % 0.00 in
04:58 57.6 °F 55.8 °F 29.80 in Calm   3.0 mph 94 % 0.00 in
05:03 57.4 °F 55.9 °F 29.80 in Calm   3.0 mph 95 % 0.00 in
05:08 57.4 °F 55.9 °F 29.80 in Calm   2.0 mph 95 % 0.00 in
05:13 57.4 °F 55.9 °F 29.80 in Calm   2.0 mph 95 % 0.00 in
05:18 57.4 °F 55.9 °F 29.81 in West 2.0 mph 3.0 mph 95 % 0.00 in
05:23 57.2 °F 55.8 °F 29.81 in West 2.0 mph 3.0 mph 95 % 0.00 in
05:28 57.4 °F 55.9 °F 29.81 in WNW 1.0 mph 5.0 mph 95 % 0.00 in
05:33 57.4 °F 55.6 °F 29.81 in WNW 2.0 mph 6.0 mph 94 % 0.00 in
05:38 57.4 °F 55.6 °F 29.81 in North 1.0 mph 6.0 mph 94 % 0.00 in
05:43 57.2 °F 55.4 °F 29.82 in NW 4.0 mph 6.0 mph 94 % 0.00 in
05:48 57.4 °F 55.6 °F 29.82 in NNW 2.0 mph 5.0 mph 94 % 0.00 in
05:53 57.4 °F 55.6 °F 29.82 in NW 2.0 mph 5.0 mph 94 % 0.00 in
05:58 57.2 °F 55.4 °F 29.81 in Calm   5.0 mph 94 % 0.00 in
06:03 57.2 °F 55.4 °F 29.82 in WNW 1.0 mph 5.0 mph 94 % 0.00 in
06:08 57.2 °F 55.4 °F 29.82 in NNW 2.0 mph 5.0 mph 94 % 0.00 in
06:13 57.4 °F 55.4 °F 29.82 in WNW 3.0 mph 5.0 mph 93 % 0.00 in
06:18 57.4 °F 55.4 °F 29.83 in WSW 4.0 mph 8.0 mph 93 % 0.00 in
06:23 57.4 °F 55.4 °F 29.82 in NW 3.0 mph 8.0 mph 93 % 0.00 in
06:28 57.6 °F 55.2 °F 29.82 in NNW 2.0 mph 8.0 mph 92 % 0.00 in
06:33 57.6 °F 55.2 °F 29.83 in NNW 1.0 mph 6.0 mph 92 % 0.00 in
06:38 57.7 °F 55.2 °F 29.83 in NW 2.0 mph 6.0 mph 91 % 0.00 in
06:43 57.7 °F 55.2 °F 29.83 in Calm   6.0 mph 91 % 0.00 in
06:48 57.7 °F 55.2 °F 29.82 in NW 1.0 mph 5.0 mph 91 % 0.00 in
06:54 57.9 °F 55.2 °F 29.83 in NNW 1.0 mph 5.0 mph 91 % 0.00 in
06:59 57.9 °F 55.2 °F 29.83 in West 2.0 mph 5.0 mph 91 % 0.00 in
07:04 57.9 °F 55.2 °F 29.83 in WSW 1.0 mph 5.0 mph 91 % 0.00 in
07:09 58.3 °F 55.6 °F 29.83 in Calm   5.0 mph 91 % 0.00 in
07:14 58.6 °F 55.9 °F 29.83 in NNW 1.0 mph 5.0 mph 91 % 0.00 in
07:19 59.0 °F 56.1 °F 29.83 in Calm   4.0 mph 90 % 0.00 in
07:24 59.4 °F 56.1 °F 29.83 in NNE 2.0 mph 4.0 mph 89 % 0.00 in
07:29 59.5 °F 56.3 °F 29.84 in North 3.0 mph 4.0 mph 89 % 0.00 in
07:34 59.7 °F 56.1 °F 29.83 in NNW 4.0 mph 6.0 mph 88 % 0.00 in
07:39 60.1 °F 56.5 °F 29.83 in SW 3.0 mph 8.0 mph 88 % 0.00 in
07:44 60.3 °F 56.3 °F 29.83 in Calm   8.0 mph 87 % 0.00 in
07:49 60.6 °F 56.7 °F 29.84 in NW 4.0 mph 8.0 mph 87 % 0.00 in
07:54 61.0 °F 57.0 °F 29.83 in NNW 4.0 mph 7.0 mph 87 % 0.00 in
07:59 61.2 °F 57.2 °F 29.83 in Calm   6.0 mph 87 % 0.00 in
08:04 61.9 °F 57.4 °F 29.83 in NW 1.0 mph 6.0 mph 85 % 0.00 in
08:09 62.2 °F 57.4 °F 29.83 in North 2.0 mph 6.0 mph 84 % 0.00 in
08:14 62.4 °F 57.6 °F 29.83 in WNW 3.0 mph 6.0 mph 84 % 0.00 in
08:19 63.0 °F 57.4 °F 29.83 in West 3.0 mph 6.0 mph 82 % 0.00 in
08:24 63.3 °F 57.7 °F 29.83 in WNW 4.0 mph 6.0 mph 82 % 0.00 in
08:29 63.9 °F 57.9 °F 29.83 in WNW 3.0 mph 6.0 mph 81 % 0.00 in
08:34 64.4 °F 58.1 °F 29.83 in Calm   7.0 mph 80 % 0.00 in
08:39 64.9 °F 58.3 °F 29.83 in West 4.0 mph 7.0 mph 79 % 0.00 in
08:44 65.1 °F 58.1 °F 29.83 in NW 1.0 mph 7.0 mph 78 % 0.00 in
08:50 66.0 °F 59.0 °F 29.84 in North 2.0 mph 7.0 mph 78 % 0.00 in
08:54 66.6 °F 59.5 °F 29.84 in Calm   7.0 mph 78 % 0.00 in
08:59 66.6 °F 58.8 °F 29.84 in NW 2.0 mph 7.0 mph 76 % 0.00 in
09:04 67.3 °F 58.6 °F 29.84 in WNW 3.0 mph 7.0 mph 74 % 0.00 in
09:09 67.5 °F 58.5 °F 29.84 in WSW 1.0 mph 7.0 mph 73 % 0.00 in
09:14 67.5 °F 58.1 °F 29.84 in NNW 3.0 mph 7.0 mph 72 % 0.00 in
09:19 67.3 °F 58.3 °F 29.85 in NNW 2.0 mph 10.0 mph 73 % 0.00 in
09:24 67.5 °F 58.5 °F 29.84 in NNW 6.0 mph 10.0 mph 73 % 0.00 in
09:29 68.0 °F 59.0 °F 29.84 in South 2.0 mph 10.0 mph 73 % 0.00 in
09:34 68.7 °F 59.7 °F 29.85 in WSW 3.0 mph 9.0 mph 73 % 0.00 in
09:40 69.1 °F 58.5 °F 29.85 in North 2.0 mph 8.0 mph 69 % 0.00 in
09:45 69.1 °F 58.8 °F 29.85 in Calm   7.0 mph 70 % 0.00 in
09:50 69.4 °F 59.2 °F 29.85 in WSW 1.0 mph 8.0 mph 70 % 0.00 in
09:55 70.5 °F 59.9 °F 29.85 in WNW 9.0 mph 9.0 mph 69 % 0.00 in
10:00 70.9 °F 59.4 °F 29.85 in Calm   9.0 mph 67 % 0.00 in
10:05 71.2 °F 59.4 °F 29.85 in NW 1.0 mph 9.0 mph 66 % 0.00 in
10:10 71.2 °F 59.4 °F 29.85 in SSW 1.0 mph 9.0 mph 66 % 0.00 in
10:15 72.0 °F 60.4 °F 29.85 in SW 2.0 mph 9.0 mph 67 % 0.00 in
10:20 72.3 °F 59.5 °F 29.85 in NNW 2.0 mph 9.0 mph 64 % 0.00 in
10:25 72.7 °F 59.7 °F 29.85 in NW 4.0 mph 8.0 mph 64 % 0.00 in
10:30 72.9 °F 59.5 °F 29.85 in SSW 5.0 mph 8.0 mph 63 % 0.00 in
10:35 72.3 °F 58.6 °F 29.85 in NNW 3.0 mph 10.0 mph 62 % 0.00 in
10:40 72.5 °F 58.8 °F 29.85 in SSE 2.0 mph 10.0 mph 62 % 0.00 in
10:45 73.2 °F 58.5 °F 29.85 in Calm   9.0 mph 60 % 0.00 in
10:50 73.0 °F 58.8 °F 29.85 in NW 6.0 mph 8.0 mph 61 % 0.00 in
10:55 73.2 °F 58.5 °F 29.85 in WSW 3.0 mph 10.0 mph 60 % 0.00 in
11:00 73.8 °F 58.1 °F 29.85 in North 3.0 mph 10.0 mph 58 % 0.00 in
11:05 73.9 °F 57.2 °F 29.84 in NW 5.0 mph 10.0 mph 56 % 0.00 in
11:10 73.8 °F 56.1 °F 29.84 in WNW 3.0 mph 11.0 mph 54 % 0.00 in
11:15 74.5 °F 55.8 °F 29.84 in WNW 5.0 mph 11.0 mph 52 % 0.00 in
11:20 74.1 °F 56.8 °F 29.84 in NNW 2.0 mph 11.0 mph 55 % 0.00 in
11:25 74.7 °F 56.5 °F 29.84 in NW 9.0 mph 11.0 mph 53 % 0.00 in
11:30 74.8 °F 56.1 °F 29.84 in WSW 5.0 mph 11.0 mph 52 % 0.00 in
11:35 75.4 °F 54.9 °F 29.84 in NNW 5.0 mph 11.0 mph 49 % 0.00 in
11:40 75.0 °F 55.0 °F 29.84 in NNE 2.0 mph 12.0 mph 50 % 0.00 in
11:45 75.6 °F 55.0 °F 29.83 in NNW 6.0 mph 12.0 mph 49 % 0.00 in
11:50 75.6 °F 56.7 °F 29.83 in NNE 4.0 mph 12.0 mph 52 % 0.00 in
11:55 76.3 °F 56.3 °F 29.83 in NNW 4.0 mph 12.0 mph 50 % 0.00 in
12:00 76.3 °F 56.8 °F 29.83 in WNW 6.0 mph 12.0 mph 51 % 0.00 in
12:05 76.5 °F 57.0 °F 29.83 in WSW 1.0 mph 10.0 mph 51 % 0.00 in
12:10 77.2 °F 55.4 °F 29.83 in SE 1.0 mph 11.0 mph 47 % 0.00 in
12:15 77.2 °F 55.4 °F 29.83 in North 5.0 mph 12.0 mph 47 % 0.00 in
12:19 76.8 °F 55.0 °F 29.83 in North 5.0 mph 12.0 mph 47 % 0.00 in
12:24 76.6 °F 55.4 °F 29.82 in WNW 3.0 mph 12.0 mph 48 % 0.00 in
12:29 77.4 °F 56.7 °F 29.82 in NE 1.0 mph 12.0 mph 49 % 0.00 in
12:34 78.1 °F 56.3 °F 29.82 in Calm   11.0 mph 47 % 0.00 in
12:39 78.1 °F 55.0 °F 29.82 in WSW 3.0 mph 11.0 mph 45 % 0.00 in
12:44 78.1 °F 54.3 °F 29.81 in WNW 5.0 mph 11.0 mph 44 % 0.00 in
12:49 78.3 °F 54.0 °F 29.81 in SSE 2.0 mph 10.0 mph 43 % 0.00 in
12:54 78.6 °F 54.9 °F 29.81 in NNW 5.0 mph 14.0 mph 44 % 0.00 in
12:59 78.8 °F 55.0 °F 29.81 in Calm   14.0 mph 44 % 0.00 in
13:04 79.2 °F 54.1 °F 29.81 in West 7.0 mph 14.0 mph 42 % 0.00 in
13:09 78.4 °F 53.4 °F 29.81 in North 11.0 mph 13.0 mph 42 % 0.00 in
13:14 78.4 °F 54.1 °F 29.81 in NNE 4.0 mph 13.0 mph 43 % 0.00 in
13:19 79.2 °F 54.7 °F 29.80 in WNW 6.0 mph 16.0 mph 43 % 0.00 in
13:24 79.0 °F 54.0 °F 29.80 in NNW 9.0 mph 16.0 mph 42 % 0.00 in
13:29 79.2 °F 54.7 °F 29.80 in NNW 3.0 mph 16.0 mph 43 % 0.00 in
13:34 79.3 °F 54.9 °F 29.80 in WNW 7.0 mph 17.0 mph 43 % 0.00 in
13:39 80.2 °F 54.3 °F 29.80 in NW 2.0 mph 17.0 mph 41 % 0.00 in
13:44 80.2 °F 53.8 °F 29.80 in NNE 2.0 mph 17.0 mph 40 % 0.00 in
13:49 80.8 °F 54.1 °F 29.80 in NW 3.0 mph 13.0 mph 40 % 0.00 in
13:54 81.0 °F 54.3 °F 29.79 in NW 7.0 mph 13.0 mph 40 % 0.00 in
13:59 80.2 °F 55.0 °F 29.79 in NNW 3.0 mph 13.0 mph 42 % 0.00 in
14:04 79.9 °F 52.0 °F 29.79 in West 5.0 mph 12.0 mph 38 % 0.00 in
14:09 80.2 °F 54.3 °F 29.79 in WNW 4.0 mph 18.0 mph 41 % 0.00 in
14:14 80.2 °F 53.8 °F 29.78 in WNW 6.0 mph 18.0 mph 40 % 0.00 in
14:15 80.2 °F 53.8 °F 29.78 in WNW 9.0 mph 18.0 mph 40 % 0.00 in
14:20 79.9 °F 52.0 °F 29.78 in NNW 4.0 mph 18.0 mph 38 % 0.00 in
14:25 80.4 °F 53.2 °F 29.78 in WNW 7.0 mph 13.0 mph 39 % 0.00 in
14:30 81.0 °F 52.9 °F 29.78 in North 6.0 mph 12.0 mph 38 % 0.00 in
14:35 80.8 °F 52.2 °F 29.78 in NW 6.0 mph 15.0 mph 37 % 0.00 in
14:40 80.8 °F 52.2 °F 29.78 in WNW 8.0 mph 15.0 mph 37 % 0.00 in
14:45 80.8 °F 52.9 °F 29.78 in WNW 9.0 mph 14.0 mph 38 % 0.00 in
14:49 81.0 °F 51.4 °F 29.77 in NNW 4.0 mph 14.0 mph 36 % 0.00 in
14:54 80.8 °F 51.3 °F 29.77 in NW 9.0 mph 15.0 mph 36 % 0.00 in
14:59 81.1 °F 53.1 °F 29.77 in West 11.0 mph 15.0 mph 38 % 0.00 in
15:04 81.0 °F 52.2 °F 29.77 in NNW 8.0 mph 15.0 mph 37 % 0.00 in
15:09 80.8 °F 52.2 °F 29.77 in WSW 8.0 mph 21.0 mph 37 % 0.00 in
15:14 81.1 °F 53.8 °F 29.76 in NNW 2.0 mph 21.0 mph 39 % 0.00 in
15:19 81.1 °F 53.1 °F 29.76 in NNW 5.0 mph 21.0 mph 38 % 0.00 in
15:24 81.5 °F 54.1 °F 29.76 in NNE 10.0 mph 16.0 mph 39 % 0.00 in
15:29 81.3 °F 54.0 °F 29.76 in NW 8.0 mph 16.0 mph 39 % 0.00 in
15:34 81.0 °F 53.6 °F 29.75 in NW 5.0 mph 16.0 mph 39 % 0.00 in
15:35 81.0 °F 52.9 °F 29.75 in WNW 4.0 mph 16.0 mph 38 % 0.00 in
15:40 81.0 °F 52.9 °F 29.75 in WNW 7.0 mph 16.0 mph 38 % 0.00 in
15:45 81.3 °F 52.5 °F 29.75 in NW 6.0 mph 16.0 mph 37 % 0.00 in
15:50 81.1 °F 52.3 °F 29.75 in NW 4.0 mph 16.0 mph 37 % 0.00 in
15:55 81.1 °F 53.8 °F 29.75 in WNW 4.0 mph 12.0 mph 39 % 0.00 in
16:00 81.7 °F 53.6 °F 29.74 in WNW 8.0 mph 12.0 mph 38 % 0.00 in
16:05 82.0 °F 52.5 °F 29.74 in NW 7.0 mph 14.0 mph 36 % 0.00 in
16:10 81.9 °F 52.3 °F 29.74 in NE 3.0 mph 14.0 mph 36 % 0.00 in
16:15 81.9 °F 51.4 °F 29.74 in West 2.0 mph 14.0 mph 35 % 0.00 in
16:20 82.2 °F 52.5 °F 29.73 in NW 7.0 mph 14.0 mph 36 % 0.00 in
16:25 82.2 °F 51.8 °F 29.73 in NW 5.0 mph 14.0 mph 35 % 0.00 in
16:30 82.4 °F 52.0 °F 29.73 in WNW 4.0 mph 11.0 mph 35 % 0.00 in
16:35 82.0 °F 51.6 °F 29.73 in NW 7.0 mph 14.0 mph 35 % 0.00 in
16:40 82.0 °F 50.9 °F 29.73 in NNW 4.0 mph 14.0 mph 34 % 0.00 in
16:45 82.6 °F 50.5 °F 29.73 in West 5.0 mph 14.0 mph 33 % 0.00 in
16:50 82.6 °F 51.4 °F 29.73 in ESE 2.0 mph 12.0 mph 34 % 0.00 in
16:55 82.9 °F 50.9 °F 29.73 in NNW 4.0 mph 12.0 mph 33 % 0.00 in
17:00 82.8 °F 51.4 °F 29.73 in NNW 4.0 mph 9.0 mph 34 % 0.00 in
17:05 82.4 °F 51.3 °F 29.73 in NNE 7.0 mph 9.0 mph 34 % 0.00 in
17:10 82.8 °F 50.7 °F 29.73 in SSW 1.0 mph 11.0 mph 33 % 0.00 in
17:15 82.8 °F 49.8 °F 29.72 in NW 3.0 mph 12.0 mph 32 % 0.00 in
17:20 82.9 °F 50.9 °F 29.72 in ESE 1.0 mph 12.0 mph 33 % 0.00 in
17:25 82.9 °F 50.9 °F 29.72 in WSW 6.0 mph 12.0 mph 33 % 0.00 in
17:30 82.9 °F 50.9 °F 29.72 in NNW 1.0 mph 9.0 mph 33 % 0.00 in
17:35 82.6 °F 50.5 °F 29.72 in NW 4.0 mph 12.0 mph 33 % 0.00 in
17:40 82.8 °F 52.3 °F 29.72 in NW 4.0 mph 12.0 mph 35 % 0.00 in
17:45 83.1 °F 51.1 °F 29.72 in West 1.0 mph 12.0 mph 33 % 0.00 in
17:50 82.8 °F 49.8 °F 29.72 in WNW 1.0 mph 10.0 mph 32 % 0.00 in
17:55 82.9 °F 50.9 °F 29.72 in WNW 5.0 mph 10.0 mph 33 % 0.00 in
18:00 82.9 °F 51.6 °F 29.71 in NW 7.0 mph 9.0 mph 34 % 0.00 in
18:05 82.8 °F 50.7 °F 29.71 in NNW 3.0 mph 13.0 mph 33 % 0.00 in
18:10 82.8 °F 50.7 °F 29.71 in NW 3.0 mph 13.0 mph 33 % 0.00 in
18:15 82.6 °F 50.5 °F 29.71 in NW 5.0 mph 13.0 mph 33 % 0.00 in
18:21 82.8 °F 50.7 °F 29.71 in NNW 3.0 mph 10.0 mph 33 % 0.00 in
18:26 82.6 °F 51.4 °F 29.71 in NNW 5.0 mph 9.0 mph 34 % 0.00 in
18:31 82.8 °F 51.4 °F 29.71 in Calm   9.0 mph 34 % 0.00 in
18:36 82.6 °F 50.5 °F 29.71 in NW 3.0 mph 8.0 mph 33 % 0.00 in
18:41 82.8 °F 50.7 °F 29.71 in NNW 2.0 mph 7.0 mph 33 % 0.00 in
18:51 82.6 °F 50.5 °F 29.71 in NNW 6.0 mph 7.0 mph 33 % 0.00 in
18:56 82.0 °F 49.3 °F 29.71 in WNW 4.0 mph 9.0 mph 32 % 0.00 in
19:01 82.0 °F 50.9 °F 29.71 in NW 1.0 mph 9.0 mph 34 % 0.00 in
19:06 82.0 °F 49.3 °F 29.71 in NNW 3.0 mph 9.0 mph 32 % 0.00 in
19:11 81.9 °F 49.1 °F 29.71 in NW 2.0 mph 8.0 mph 32 % 0.00 in
19:16 81.3 °F 48.6 °F 29.71 in NNW 3.0 mph 6.0 mph 32 % 0.00 in
19:21 81.0 °F 50.0 °F 29.71 in NW 1.0 mph 6.0 mph 34 % 0.00 in
19:26 80.4 °F 49.5 °F 29.71 in NW 1.0 mph 6.0 mph 34 % 0.00 in
19:31 80.2 °F 49.3 °F 29.71 in NW 2.0 mph 4.0 mph 34 % 0.00 in
19:36 79.9 °F 50.5 °F 29.71 in NW 2.0 mph 4.0 mph 36 % 0.00 in
19:41 79.5 °F 49.5 °F 29.71 in Calm   4.0 mph 35 % 0.00 in
19:46 79.3 °F 50.0 °F 29.71 in NW 1.0 mph 4.0 mph 36 % 0.00 in
19:51 79.3 °F 50.0 °F 29.71 in Calm   4.0 mph 36 % 0.00 in
19:56 79.0 °F 51.3 °F 29.71 in Calm   2.0 mph 38 % 0.00 in
20:01 78.3 °F 50.5 °F 29.71 in Calm   2.0 mph 38 % 0.00 in
20:06 77.9 °F 51.6 °F 29.71 in Calm   2.0 mph 40 % 0.00 in
20:11 77.2 °F 51.1 °F 29.72 in Calm   2.0 mph 40 % 0.00 in
20:16 76.5 °F 51.1 °F 29.72 in Calm   1.0 mph 41 % 0.00 in
20:18 76.3 °F 51.4 °F 29.72 in Calm   1.0 mph 42 % 0.00 in
20:23 75.6 °F 50.9 °F 29.72 in Calm     42 % 0.00 in
20:24 75.6 °F 51.4 °F 29.72 in Calm     43 % 0.00 in
20:29 74.8 °F 51.4 °F 29.72 in Calm   1.0 mph 44 % 0.00 in
20:34 74.3 °F 52.2 °F 29.72 in Calm   1.0 mph 46 % 0.00 in
20:39 73.9 °F 51.8 °F 29.72 in Calm   1.0 mph 46 % 0.00 in
20:44 73.2 °F 51.8 °F 29.72 in Calm   1.0 mph 47 % 0.00 in
20:49 72.7 °F 51.8 °F 29.72 in Calm   1.0 mph 48 % 0.00 in
20:54 71.8 °F 51.1 °F 29.73 in Calm     48 % 0.00 in
20:59 70.9 °F 51.8 °F 29.73 in Calm     51 % 0.00 in
21:04 70.5 °F 52.0 °F 29.73 in Calm     52 % 0.00 in
21:09 70.3 °F 51.8 °F 29.73 in Calm     52 % 0.00 in
21:14 70.2 °F 52.2 °F 29.73 in Calm     53 % 0.00 in
21:19 70.2 °F 52.2 °F 29.73 in Calm     53 % 0.00 in
21:24 70.0 °F 52.5 °F 29.73 in Calm     54 % 0.00 in
21:29 69.6 °F 52.7 °F 29.73 in Calm     55 % 0.00 in
21:34 69.4 °F 53.1 °F 29.73 in Calm     56 % 0.00 in
21:39 69.3 °F 53.8 °F 29.73 in Calm     58 % 0.00 in
21:44 69.3 °F 53.8 °F 29.74 in Calm     58 % 0.00 in
21:46 69.1 °F 54.1 °F 29.74 in Calm     59 % 0.00 in
21:51 68.7 °F 54.3 °F 29.74 in Calm     60 % 0.00 in
21:56 68.5 °F 54.5 °F 29.74 in Calm     61 % 0.00 in
22:01 68.4 °F 54.9 °F 29.74 in Calm     62 % 0.00 in
22:06 68.2 °F 54.7 °F 29.74 in Calm     62 % 0.00 in
22:11 68.0 °F 54.9 °F 29.74 in Calm     63 % 0.00 in
22:17 67.8 °F 54.7 °F 29.74 in Calm     63 % 0.00 in
22:22 67.6 °F 54.7 °F 29.74 in Calm     63 % 0.00 in
22:27 67.3 °F 54.7 °F 29.74 in Calm   1.0 mph 64 % 0.00 in
22:32 66.9 °F 54.3 °F 29.75 in Calm   1.0 mph 64 % 0.00 in
22:37 66.7 °F 55.0 °F 29.75 in Calm   1.0 mph 66 % 0.00 in
22:42 66.7 °F 55.4 °F 29.75 in Calm     67 % 0.00 in
22:47 66.6 °F 55.2 °F 29.75 in Calm   1.0 mph 67 % 0.00 in
22:52 66.4 °F 55.0 °F 29.75 in Calm   1.0 mph 67 % 0.00 in
22:57 66.0 °F 55.6 °F 29.75 in Calm   1.0 mph 69 % 0.00 in
23:02 65.8 °F 55.4 °F 29.75 in Calm     69 % 0.00 in
23:07 65.7 °F 55.6 °F 29.75 in Calm     70 % 0.00 in
23:12 65.5 °F 55.4 °F 29.75 in Calm   1.0 mph 70 % 0.00 in
23:17 65.1 °F 55.0 °F 29.75 in Calm   1.0 mph 70 % 0.00 in
23:22 64.9 °F 55.4 °F 29.75 in Calm   1.0 mph 71 % 0.00 in
23:27 64.6 °F 55.0 °F 29.75 in Calm     71 % 0.00 in
23:32 64.4 °F 55.2 °F 29.75 in Calm     72 % 0.00 in
23:37 64.4 °F 55.2 °F 29.75 in Calm     72 % 0.00 in
23:42 64.0 °F 54.9 °F 29.75 in Calm     72 % 0.00 in
23:47 64.2 °F 55.4 °F 29.75 in Calm     73 % 0.00 in
23:52 64.0 °F 55.2 °F 29.75 in Calm     73 % 0.00 in
23:57 63.9 °F 55.4 °F 29.75 in Calm     74 % 0.00 in
Spring, Texas: Villages of Bridgestone
Compliments of Weather Underground - 2.75 mb

Script developed by  Jim McMurry - jmcmurry@mwt.net Adapted for the template by  Wim van der Kuil - Leuven-Template.eu

You find our weather info also at:

UK Metoffice

WeatherCloud

Weather Underground

Mid-South Weather Network

AWEKAS

Citizen Weather Observer Program (CWOP)

HAMweather, WeatherForYou, PWS Weather

Equipment we use:

Weather-station
Davis Vantage Vue

Weather-program
Meteohub

Weather-server
Debian 7.9 x86 (Guest)

Provider
DreamHost

Davis Vantage Vue

Meteohub

Debian 7.9 x86 (Guest)

DreamHost